This is the latest recevied weather packets stored in our database for station/object KC5TIL-3. If no packets are shown the sender has not sent any weather packets the latest 10 day(s).
| Time | Temp. | Humidity | Pressure | Rain* | Wind** | Luminosity | Snow |
|---|---|---|---|---|---|---|---|
| 1777757619 | 23.33° C | 15% | 1016.8 hPa | 0 mm | 1.34 m/s, 327° | - | - |
| 1777757320 | 23.89° C | 15% | 1016.8 hPa | 0 mm | 1.79 m/s, 345° | - | - |
| 1777757019 | 23.33° C | 15% | 1016.8 hPa | 0 mm | 0 m/s | - | - |
| 1777756721 | 22.78° C | 16% | 1017.8 hPa | 0 mm | 2.24 m/s, 31° | - | - |
| 1777756422 | 23.33° C | 16% | 1017.8 hPa | 0 mm | 1.34 m/s, 322° | - | - |
| 1777755526 | 23.33° C | 15% | 1017.8 hPa | 0 mm | 2.24 m/s, 296° | - | - |
| 1777755223 | 23.33° C | 15% | 1017.8 hPa | 0 mm | 1.79 m/s, 289° | - | - |
| 1777754926 | 23.33° C | 16% | 1017.8 hPa | 0 mm | 1.79 m/s, 301° | - | - |
| 1777754326 | 23.33° C | 16% | 1017.8 hPa | 0 mm | 0 m/s | - | - |
| 1777754023 | 22.78° C | 16% | 1017.8 hPa | 0 mm | 3.58 m/s, 29° | - | - |
| 1777753720 | 23.89° C | 15% | 1017.8 hPa | 0 mm | 1.79 m/s, 27° | - | - |
| 1777753418 | 23.33° C | 16% | 1017.8 hPa | 0 mm | 3.13 m/s, 338° | - | - |
| 1777753120 | 23.89° C | 15% | 1017.8 hPa | 0 mm | 0 m/s | - | - |
| 1777752818 | 23.33° C | 16% | 1017.8 hPa | 0 mm | 1.34 m/s, 3° | - | - |
| 1777752517 | 23.33° C | 16% | 1017.8 hPa | 0 mm | 1.79 m/s, 299° | - | - |
| 1777752213 | 22.78° C | 16% | 1017.8 hPa | 0 mm | 2.24 m/s, 46° | - | - |
| 1777751915 | 22.22° C | 16% | 1017.8 hPa | 0 mm | 2.24 m/s, 1° | - | - |
| 1777751018 | 22.22° C | 14% | 1018.8 hPa | 0 mm | 2.68 m/s, 13° | - | - |
| 1777750419 | 23.33° C | 16% | 1018.8 hPa | 0 mm | 1.79 m/s, 39° | - | - |
| 1777750120 | 23.33° C | 16% | 1018.8 hPa | 0 mm | 0 m/s | - | - |
| 1777749818 | 22.78° C | 13% | 1018.8 hPa | 0 mm | 1.34 m/s, 356° | - | - |
| 1777749222 | 23.33° C | 16% | 1018.8 hPa | 0 mm | 1.79 m/s, 346° | - | - |
| 1777748622 | 22.22° C | 14% | 1018.8 hPa | 0 mm | 2.24 m/s, 2° | - | - |
| 1777748324 | 22.22° C | 14% | 1018.8 hPa | 0 mm | 2.68 m/s, 314° | - | - |
| 1777748018 | 22.22° C | 16% | 1018.8 hPa | 0 mm | 1.79 m/s, 63° | - | - |
* Rain latest hour (hover to see other rain measurements)
** Current wind speed in m/s (hover to see current wind gust speed)